Time;durP1;ratioP1;P1;durP2;ratioP2;P2;SDS_P1;SDS_P2;PMS_P1;PMS_P2;Temp;Humidity;BMP_temperature;BMP_pressure;BME280_temperature;BME280_humidity;BME280_pressure;Samples;Min_cycle;Max_cycle;Signal;HPM_P1;HPM_P2
2022/10/21 00:01:57;;;;;;;17.13;15.43;;;13.40;99.90;;;;;;4979035;28;20204;-79
2022/10/21 00:04:24;;;;;;;13.60;12.00;;;13.40;99.90;;;;;;4966986;28;20228;-80
2022/10/21 00:06:51;;;;;;;15.43;13.27;;;13.40;99.90;;;;;;4978553;28;20646;-81
2022/10/21 00:09:17;;;;;;;14.10;12.50;;;13.40;99.90;;;;;;4972649;28;20259;-80
2022/10/21 00:11:44;;;;;;;12.17;10.90;;;13.40;99.90;;;;;;4964623;28;20219;-80
2022/10/21 00:14:12;;;;;;;14.90;13.33;;;13.50;99.90;;;;;;4959635;28;20206;-80
2022/10/21 00:16:39;;;;;;;22.70;20.67;;;13.50;99.90;;;;;;4963696;28;20195;-81
2022/10/21 00:19:06;;;;;;;15.77;14.37;;;13.50;99.90;;;;;;4973621;28;20723;-80
2022/10/21 00:21:35;;;;;;;14.50;12.97;;;13.60;99.90;;;;;;4971345;28;20276;-80
2022/10/21 00:24:02;;;;;;;16.27;14.37;;;13.60;99.90;;;;;;4961461;28;20616;-80
2022/10/21 00:26:29;;;;;;;17.27;15.67;;;13.60;99.90;;;;;;4983186;28;20220;-79
2022/10/21 00:28:56;;;;;;;15.20;13.70;;;13.70;99.90;;;;;;4971290;28;20189;-81
2022/10/21 00:31:25;;;;;;;14.43;12.00;;;13.70;99.90;;;;;;4960958;28;20226;-80
2022/10/21 00:33:52;;;;;;;11.73;10.33;;;13.70;99.90;;;;;;4960969;28;20207;-79
2022/10/21 00:36:19;;;;;;;11.53;10.33;;;13.70;99.90;;;;;;4965459;28;20214;-81
2022/10/21 00:38:48;;;;;;;11.03;9.80;;;13.70;99.90;;;;;;4970278;28;20686;-79
2022/10/21 00:41:16;;;;;;;12.37;10.73;;;13.70;99.90;;;;;;4964811;28;20259;-81
2022/10/21 00:43:58;;;;;;;15.53;13.70;;;13.70;99.90;;;;;;4971881;28;20208;-80
2022/10/21 00:46:34;;;;;;;14.03;12.53;;;13.70;99.90;;;;;;4963928;28;20210;-81
2022/10/21 00:49:05;;;;;;;13.73;12.33;;;13.70;99.90;;;;;;4962694;28;20238;-79
2022/10/21 00:51:32;;;;;;;15.73;13.90;;;13.70;99.90;;;;;;4959563;28;20224;-80
2022/10/21 00:54:00;;;;;;;16.33;14.90;;;13.80;99.90;;;;;;4972310;28;20198;-81
2022/10/21 00:56:29;;;;;;;13.37;11.30;;;13.80;99.90;;;;;;4962012;28;20582;-80
2022/10/21 00:58:59;;;;;;;13.13;11.43;;;13.80;99.90;;;;;;4961531;28;20269;-80
2022/10/21 01:01:27;;;;;;;13.03;11.73;;;13.80;99.90;;;;;;4975914;28;20234;-80
2022/10/21 01:03:54;;;;;;;14.00;12.03;;;13.90;99.90;;;;;;4974193;28;20198;-80
2022/10/21 01:06:25;;;;;;;18.40;13.07;;;13.90;99.90;;;;;;4976409;28;20204;-80
2022/10/21 01:08:54;;;;;;;13.00;11.60;;;13.90;99.90;;;;;;4962207;28;20867;-80
2022/10/21 01:11:22;;;;;;;12.23;11.03;;;13.80;99.90;;;;;;4962732;28;20241;-79
2022/10/21 01:14:06;;;;;;;14.90;12.77;;;13.90;99.90;;;;;;4963609;28;20210;-80
2022/10/21 01:16:40;;;;;;;12.97;11.27;;;13.90;99.90;;;;;;4976594;28;20619;-81
2022/10/21 01:19:26;;;;;;;12.47;11.03;;;13.90;99.90;;;;;;4974796;28;20209;-81
2022/10/21 01:21:57;;;;;;;12.73;10.23;;;13.90;99.90;;;;;;4962313;28;20199;-80
2022/10/21 01:24:49;;;;;;;12.30;10.97;;;13.90;99.90;;;;;;4968342;28;20584;-80
2022/10/21 01:27:31;;;;;;;12.30;11.00;;;13.90;99.90;;;;;;4959286;28;20765;-81
2022/10/21 01:30:23;;;;;;;14.33;11.30;;;13.90;99.90;;;;;;4959313;28;20239;-80
2022/10/21 01:33:15;;;;;;;12.50;11.07;;;13.90;99.90;;;;;;4974843;28;20614;-80
2022/10/21 01:35:49;;;;;;;16.13;12.67;;;13.80;99.90;;;;;;4978562;28;20224;-80
2022/10/21 01:38:23;;;;;;;13.07;11.60;;;13.80;99.90;;;;;;4964036;28;20192;-81
2022/10/21 01:40:58;;;;;;;15.33;13.83;;;13.90;99.90;;;;;;4963425;28;20226;-80
2022/10/21 01:43:34;;;;;;;12.77;11.43;;;13.80;99.90;;;;;;4977637;28;20209;-80
2022/10/21 01:46:03;;;;;;;18.43;16.93;;;13.80;99.90;;;;;;4967704;28;20248;-81
2022/10/21 01:48:34;;;;;;;18.60;17.00;;;13.90;99.90;;;;;;4951757;28;20698;-80
2022/10/21 01:51:04;;;;;;;12.57;11.10;;;13.90;99.90;;;;;;4967355;28;20214;-79
2022/10/21 01:53:38;;;;;;;11.83;10.63;;;13.90;99.90;;;;;;4966534;28;20225;-80
2022/10/21 01:56:06;;;;;;;12.07;10.77;;;13.90;99.90;;;;;;4963495;28;20577;-80
2022/10/21 01:58:37;;;;;;;13.83;11.00;;;13.90;99.90;;;;;;4960627;28;20243;-80
2022/10/21 02:01:06;;;;;;;12.20;11.00;;;13.90;99.90;;;;;;4968125;28;20230;-80
2022/10/21 02:03:38;;;;;;;13.77;11.03;;;14.00;99.90;;;;;;4960131;28;20668;-81
2022/10/21 02:06:06;;;;;;;11.03;9.93;;;14.00;99.90;;;;;;4960395;28;20213;-80
2022/10/21 02:08:33;;;;;;;12.10;10.80;;;14.10;99.90;;;;;;4969356;28;20225;-80
2022/10/21 02:11:03;;;;;;;11.67;10.53;;;14.10;99.90;;;;;;4967874;28;20230;-80
2022/10/21 02:13:35;;;;;;;13.03;11.63;;;14.10;99.90;;;;;;4962994;28;20207;-80
2022/10/21 02:16:06;;;;;;;11.43;10.27;;;14.10;99.90;;;;;;4970593;28;20571;-80
2022/10/21 02:18:34;;;;;;;14.67;13.07;;;14.10;99.90;;;;;;4958580;28;20202;-80
2022/10/21 02:21:06;;;;;;;12.57;10.93;;;14.10;99.90;;;;;;4965641;28;20225;-80
2022/10/21 02:23:39;;;;;;;12.20;10.23;;;14.00;99.90;;;;;;4957901;28;20209;-80
2022/10/21 02:26:06;;;;;;;11.30;10.13;;;14.00;99.90;;;;;;4961811;28;20210;-80
2022/10/21 02:28:34;;;;;;;13.83;11.37;;;13.90;99.90;;;;;;4962366;28;20726;-81
2022/10/21 02:31:17;;;;;;;12.77;11.43;;;13.90;99.90;;;;;;4964900;28;20219;-80
2022/10/21 02:33:54;;;;;;;11.83;10.63;;;13.90;99.90;;;;;;4957470;28;20199;-80
2022/10/21 02:36:34;;;;;;;12.03;10.83;;;13.90;99.90;;;;;;4968066;28;20198;-80
2022/10/21 02:39:07;;;;;;;10.93;9.83;;;13.90;99.90;;;;;;4967782;28;20190;-80
2022/10/21 02:41:37;;;;;;;13.97;11.47;;;13.90;99.90;;;;;;4967632;28;20214;-82
2022/10/21 02:44:05;;;;;;;12.27;10.83;;;13.90;99.90;;;;;;4973611;28;20206;-80
2022/10/21 02:46:37;;;;;;;12.27;11.07;;;13.90;99.90;;;;;;4968644;28;20212;-81
2022/10/21 02:49:05;;;;;;;13.17;11.77;;;13.90;99.90;;;;;;4968507;28;20245;-81
2022/10/21 02:51:32;;;;;;;12.20;10.90;;;13.90;99.90;;;;;;4969716;28;20229;-80
2022/10/21 02:53:59;;;;;;;13.30;11.90;;;13.90;99.90;;;;;;4960646;28;20199;-80
2022/10/21 02:56:26;;;;;;;13.13;10.70;;;13.90;99.90;;;;;;4969381;28;20199;-80
2022/10/21 02:58:54;;;;;;;13.50;11.23;;;13.80;99.90;;;;;;4950084;28;20245;-80
2022/10/21 03:01:20;;;;;;;11.97;10.77;;;13.80;99.90;;;;;;4952893;28;20226;-80
2022/10/21 03:03:47;;;;;;;11.97;10.77;;;13.90;99.90;;;;;;4950372;28;20202;-79
2022/10/21 03:06:15;;;;;;;13.13;11.73;;;13.90;99.90;;;;;;4949287;28;20207;-80
2022/10/21 03:08:42;;;;;;;12.53;10.73;;;13.90;99.90;;;;;;4947182;28;20219;-80
2022/10/21 03:11:09;;;;;;;12.30;11.00;;;13.90;99.90;;;;;;4944058;28;20305;-80
2022/10/21 03:13:36;;;;;;;11.80;10.60;;;13.90;99.90;;;;;;4951970;28;20187;-79
2022/10/21 03:16:03;;;;;;;10.90;9.83;;;13.90;99.90;;;;;;4951720;28;20199;-80
2022/10/21 03:18:30;;;;;;;10.90;9.80;;;13.90;99.90;;;;;;4951071;28;20196;-80
2022/10/21 03:20:57;;;;;;;11.60;10.37;;;13.90;99.90;;;;;;4951826;28;20219;-80
2022/10/21 03:23:25;;;;;;;12.17;10.97;;;13.90;99.90;;;;;;4953721;28;20203;-79
2022/10/21 03:25:52;;;;;;;10.87;9.80;;;13.90;99.90;;;;;;4950504;28;20194;-79
2022/10/21 03:28:20;;;;;;;10.73;9.67;;;14.00;99.90;;;;;;4953029;28;20222;-80
2022/10/21 03:30:47;;;;;;;11.40;10.30;;;14.00;99.90;;;;;;4963160;28;20234;-80
2022/10/21 03:33:13;;;;;;;12.30;10.60;;;14.00;99.90;;;;;;4958932;28;20199;-79
2022/10/21 03:35:40;;;;;;;13.47;10.60;;;14.00;99.90;;;;;;4952498;28;20208;-80
2022/10/21 03:38:07;;;;;;;12.13;10.83;;;14.00;99.90;;;;;;4958689;28;20210;-80
2022/10/21 03:40:39;;;;;;;12.57;10.63;;;14.00;99.90;;;;;;4952185;28;20231;-80
2022/10/21 03:43:05;;;;;;;12.17;10.87;;;14.00;99.90;;;;;;4962829;28;20203;-80
2022/10/21 03:45:32;;;;;;;12.83;11.53;;;14.00;99.90;;;;;;4947001;28;20201;-80
2022/10/21 03:47:59;;;;;;;13.10;10.73;;;14.00;99.90;;;;;;4949254;28;20298;-81
2022/10/21 03:50:26;;;;;;;13.10;10.40;;;13.90;99.90;;;;;;4967961;28;20230;-80
2022/10/21 03:52:55;;;;;;;11.53;10.33;;;13.90;99.90;;;;;;4955450;28;20649;-81
2022/10/21 03:55:24;;;;;;;15.30;14.00;;;13.90;99.90;;;;;;4953538;28;20191;-80
2022/10/21 03:57:52;;;;;;;14.23;12.73;;;14.00;99.90;;;;;;4941853;28;20201;-80
2022/10/21 04:00:20;;;;;;;13.23;12.03;;;14.00;99.90;;;;;;4938077;28;20215;-81
2022/10/21 04:02:47;;;;;;;15.40;14.00;;;14.00;99.90;;;;;;4952822;28;20204;-82
2022/10/21 04:05:14;;;;;;;17.50;15.83;;;14.00;99.90;;;;;;4963244;28;20203;-79
2022/10/21 04:07:41;;;;;;;17.23;15.80;;;14.00;99.90;;;;;;4958389;28;20225;-80
2022/10/21 04:10:10;;;;;;;15.10;13.90;;;14.00;99.90;;;;;;4966368;28;20235;-80
2022/10/21 04:12:37;;;;;;;13.63;12.43;;;14.00;99.90;;;;;;4968597;28;20621;-80
2022/10/21 04:15:07;;;;;;;13.43;12.00;;;14.00;99.90;;;;;;4961731;28;20202;-79
2022/10/21 04:17:34;;;;;;;14.43;11.60;;;14.00;99.90;;;;;;4957954;28;20198;-79
2022/10/21 04:20:00;;;;;;;13.10;11.70;;;14.00;99.90;;;;;;4956658;28;20222;-80
2022/10/21 04:22:27;;;;;;;11.63;10.43;;;14.00;99.90;;;;;;4954204;28;20204;-81
2022/10/21 04:24:54;;;;;;;11.77;10.57;;;14.00;99.90;;;;;;4957934;28;20197;-80
2022/10/21 04:27:21;;;;;;;12.43;11.03;;;14.00;99.90;;;;;;4967006;28;20627;-80
2022/10/21 04:29:48;;;;;;;11.13;9.97;;;14.00;99.90;;;;;;4951418;28;20601;-80
2022/10/21 04:32:16;;;;;;;12.03;10.93;;;14.00;99.90;;;;;;4970446;28;20238;-80
2022/10/21 04:34:44;;;;;;;12.00;10.77;;;14.00;99.90;;;;;;4965441;28;20199;-80
2022/10/21 04:37:11;;;;;;;11.10;10.00;;;14.10;99.90;;;;;;4960591;28;20286;-80
2022/10/21 04:39:38;;;;;;;10.73;9.67;;;14.10;99.90;;;;;;4956625;28;20315;-80
2022/10/21 04:42:05;;;;;;;11.23;10.13;;;14.00;99.90;;;;;;4953557;28;20209;-80
2022/10/21 04:44:32;;;;;;;11.10;10.00;;;14.00;99.90;;;;;;4963929;28;20199;-80
2022/10/21 04:46:59;;;;;;;12.73;11.63;;;14.00;99.90;;;;;;4983832;28;20260;-80
2022/10/21 04:49:27;;;;;;;16.90;15.60;;;14.00;99.90;;;;;;4952236;28;20711;-80
2022/10/21 04:51:54;;;;;;;15.43;14.20;;;14.00;99.90;;;;;;4994785;28;20202;-80
2022/10/21 04:54:21;;;;;;;16.47;15.13;;;14.00;99.90;;;;;;4965174;28;20210;-80
2022/10/21 04:56:48;;;;;;;12.57;10.43;;;14.00;99.90;;;;;;4998905;28;20195;-80
2022/10/21 04:59:15;;;;;;;11.43;10.33;;;14.00;99.90;;;;;;4963783;28;20245;-79
2022/10/21 05:01:41;;;;;;;12.10;10.83;;;14.00;99.90;;;;;;4958075;28;20287;-81
2022/10/21 05:04:08;;;;;;;12.70;11.40;;;14.00;99.90;;;;;;4960367;28;20651;-80
2022/10/21 05:06:36;;;;;;;11.33;10.23;;;14.00;99.90;;;;;;4976203;28;20199;-81
2022/10/21 05:09:03;;;;;;;11.77;10.67;;;14.00;99.90;;;;;;4964916;28;20219;-81
2022/10/21 05:11:30;;;;;;;10.83;9.73;;;14.00;99.90;;;;;;4970082;28;20233;-79
2022/10/21 05:13:57;;;;;;;14.00;11.00;;;14.00;99.90;;;;;;4966960;28;20197;-80
2022/10/21 05:16:24;;;;;;;12.93;11.63;;;14.10;99.90;;;;;;4958137;28;20569;-80
2022/10/21 05:18:51;;;;;;;12.10;10.80;;;14.10;99.90;;;;;;4968471;28;20195;-80
2022/10/21 05:21:18;;;;;;;11.00;10.00;;;14.10;99.90;;;;;;4961820;28;20222;-81
2022/10/21 05:23:46;;;;;;;10.93;9.83;;;14.10;99.90;;;;;;4967369;28;20196;-81
2022/10/21 05:26:13;;;;;;;12.60;11.30;;;14.10;99.90;;;;;;4957004;28;20687;-81
2022/10/21 05:28:39;;;;;;;13.43;12.03;;;14.10;99.90;;;;;;4966131;28;20691;-81
2022/10/21 05:31:06;;;;;;;13.13;11.83;;;14.10;99.90;;;;;;4964912;28;20228;-80
2022/10/21 05:33:34;;;;;;;13.73;11.70;;;14.10;99.90;;;;;;4957750;28;20200;-81
2022/10/21 05:36:05;;;;;;;13.30;11.70;;;14.20;99.90;;;;;;4975856;28;20229;-80
2022/10/21 05:38:33;;;;;;;12.63;11.40;;;14.20;99.90;;;;;;4954904;28;20201;-80
2022/10/21 05:41:01;;;;;;;13.43;12.03;;;14.20;99.90;;;;;;4959109;28;20784;-81
2022/10/21 05:43:28;;;;;;;13.50;12.07;;;14.20;99.90;;;;;;4962380;28;20205;-81
2022/10/21 05:45:55;;;;;;;12.97;11.60;;;14.20;99.90;;;;;;4956888;28;20201;-80
2022/10/21 05:48:22;;;;;;;12.47;11.27;;;14.20;99.90;;;;;;4972346;28;21415;-81
2022/10/21 05:50:53;;;;;;;11.70;10.50;;;14.20;99.90;;;;;;4962650;28;20788;-81
2022/10/21 05:53:20;;;;;;;12.50;11.30;;;14.20;99.90;;;;;;4966297;28;20689;-81
2022/10/21 05:55:54;;;;;;;11.37;10.37;;;14.30;99.90;;;;;;4962463;28;20206;-80
2022/10/21 05:58:23;;;;;;;12.10;10.90;;;14.30;99.90;;;;;;4969637;28;20206;-80
2022/10/21 06:00:50;;;;;;;12.10;10.90;;;14.30;99.90;;;;;;4958204;28;20202;-81
2022/10/21 06:03:17;;;;;;;11.30;10.20;;;14.30;99.90;;;;;;4956320;28;20205;-81
2022/10/21 06:05:44;;;;;;;11.20;10.10;;;14.30;99.90;;;;;;4970664;28;20203;-85
2022/10/21 06:08:11;;;;;;;11.63;10.53;;;14.30;99.90;;;;;;4967478;28;20352;-81
2022/10/21 06:10:38;;;;;;;11.53;10.33;;;14.30;99.90;;;;;;4967266;28;20235;-81
2022/10/21 06:13:05;;;;;;;11.47;10.27;;;14.30;99.90;;;;;;4964532;28;20216;-79
2022/10/21 06:15:33;;;;;;;11.37;10.17;;;14.30;99.90;;;;;;4960405;28;20239;-79
2022/10/21 06:17:59;;;;;;;12.77;11.00;;;14.30;99.90;;;;;;4951179;28;20206;-80
2022/10/21 06:20:26;;;;;;;13.17;11.30;;;14.30;99.90;;;;;;4964116;28;20221;-80
2022/10/21 06:22:53;;;;;;;12.20;10.90;;;14.30;99.90;;;;;;4963461;28;20698;-79
2022/10/21 06:25:22;;;;;;;13.20;11.13;;;14.30;99.90;;;;;;4962617;28;20198;-79
2022/10/21 06:27:49;;;;;;;12.97;11.40;;;14.30;99.90;;;;;;4960524;28;20288;-79
2022/10/21 06:30:16;;;;;;;14.60;11.63;;;14.30;99.90;;;;;;4965304;28;20272;-80
2022/10/21 06:32:44;;;;;;;11.30;10.10;;;14.30;99.90;;;;;;4963320;28;20743;-79
2022/10/21 06:35:11;;;;;;;13.13;10.80;;;14.30;99.90;;;;;;4963184;28;20221;-81
2022/10/21 06:37:38;;;;;;;11.53;10.33;;;14.30;99.90;;;;;;4963479;28;20202;-79
2022/10/21 06:40:06;;;;;;;12.30;11.10;;;14.30;99.90;;;;;;4949917;28;20742;-79
2022/10/21 06:42:32;;;;;;;13.90;11.20;;;14.30;99.90;;;;;;4951743;28;20463;-80
2022/10/21 06:44:59;;;;;;;10.20;9.23;;;14.30;99.90;;;;;;4963411;28;20202;-80
2022/10/21 06:47:26;;;;;;;11.70;10.60;;;14.40;99.90;;;;;;4951839;28;20203;-80
2022/10/21 06:49:54;;;;;;;11.43;10.23;;;14.40;99.90;;;;;;4957924;28;20248;-80
2022/10/21 06:52:21;;;;;;;12.83;10.77;;;14.40;99.90;;;;;;4952449;28;20202;-79
2022/10/21 06:54:48;;;;;;;14.33;10.73;;;14.40;99.90;;;;;;4955670;28;20202;-80
2022/10/21 06:57:15;;;;;;;12.10;10.90;;;14.40;99.90;;;;;;4953859;28;20211;-80
2022/10/21 06:59:42;;;;;;;10.93;9.83;;;14.40;99.90;;;;;;4970407;28;20703;-80
2022/10/21 07:02:09;;;;;;;12.97;11.87;;;14.40;99.90;;;;;;4970607;28;20207;-79
2022/10/21 07:04:36;;;;;;;13.10;11.87;;;14.40;99.90;;;;;;4953315;28;20200;-80
2022/10/21 07:07:04;;;;;;;14.73;13.33;;;14.40;99.90;;;;;;4941108;28;20214;-80
2022/10/21 07:09:31;;;;;;;16.13;14.73;;;14.40;99.90;;;;;;4949068;28;20222;-80
2022/10/21 07:12:00;;;;;;;13.27;12.07;;;14.50;99.90;;;;;;4949106;28;20206;-80
2022/10/21 07:14:27;;;;;;;12.63;11.33;;;14.40;99.90;;;;;;4951963;28;20204;-80
2022/10/21 07:16:54;;;;;;;11.83;10.67;;;14.50;99.90;;;;;;4948584;28;20632;-80
2022/10/21 07:19:21;;;;;;;11.43;9.97;;;14.50;99.90;;;;;;4951964;28;20213;-80
2022/10/21 07:21:48;;;;;;;11.27;10.17;;;14.50;99.90;;;;;;4950398;28;20204;-80
2022/10/21 07:24:16;;;;;;;10.93;9.83;;;14.50;99.90;;;;;;4953110;28;20706;-80
2022/10/21 07:26:43;;;;;;;16.90;15.50;;;14.60;99.90;;;;;;4952344;28;20194;-80
2022/10/21 07:29:10;;;;;;;16.80;15.60;;;14.70;99.90;;;;;;4961735;28;20217;-78
2022/10/21 07:31:38;;;;;;;11.50;10.33;;;14.70;99.90;;;;;;4964571;28;20220;-78
2022/10/21 07:34:06;;;;;;;10.23;8.50;;;14.80;99.90;;;;;;4960843;28;20208;-79
2022/10/21 07:36:36;;;;;;;12.57;11.33;;;14.90;99.90;;;;;;4959826;28;20676;-78
2022/10/21 07:39:07;;;;;;;10.07;8.13;;;15.00;99.90;;;;;;4957794;28;20205;-79
2022/10/21 07:41:37;;;;;;;8.80;7.80;;;15.00;99.90;;;;;;4955358;28;20280;-80
2022/10/21 07:44:05;;;;;;;12.80;11.83;;;15.10;99.90;;;;;;4956805;28;20265;-78
2022/10/21 07:46:32;;;;;;;9.30;7.17;;;15.10;99.90;;;;;;4963817;28;20201;-80
2022/10/21 07:49:00;;;;;;;8.70;7.83;;;15.10;99.90;;;;;;4950085;28;20588;-83
2022/10/21 07:51:27;;;;;;;7.27;6.57;;;15.20;99.90;;;;;;4948308;28;20601;-81
2022/10/21 07:53:56;;;;;;;11.33;7.87;;;15.20;99.90;;;;;;4952660;28;20207;-81
2022/10/21 07:56:25;;;;;;;9.57;7.60;;;15.10;99.90;;;;;;4961604;28;20270;-80
2022/10/21 07:58:55;;;;;;;8.60;7.43;;;15.10;99.90;;;;;;4956754;28;20216;-81
2022/10/21 08:01:22;;;;;;;13.80;7.30;;;15.20;99.90;;;;;;4964373;28;20241;-79
2022/10/21 08:03:51;;;;;;;7.83;6.70;;;15.20;99.90;;;;;;4961399;28;20245;-80
2022/10/21 08:06:18;;;;;;;11.60;6.57;;;15.20;99.90;;;;;;4969618;28;20664;-81
2022/10/21 08:08:46;;;;;;;13.20;9.63;;;15.20;99.90;;;;;;4962036;28;20201;-81
2022/10/21 08:11:21;;;;;;;11.43;10.33;;;15.20;99.90;;;;;;4960000;28;20291;-81
2022/10/21 08:13:48;;;;;;;7.53;5.87;;;15.20;99.90;;;;;;4959739;28;20209;-81
2022/10/21 08:16:16;;;;;;;6.50;5.33;;;15.30;99.90;;;;;;4961396;28;20204;-82
2022/10/21 08:18:43;;;;;;;11.03;10.10;;;15.30;99.90;;;;;;4951413;28;20196;-80
2022/10/21 08:21:10;;;;;;;10.63;9.73;;;15.30;99.90;;;;;;4962667;28;20655;-80
2022/10/21 08:23:38;;;;;;;11.37;10.57;;;15.30;99.90;;;;;;4963394;28;20203;-81
2022/10/21 08:26:07;;;;;;;10.70;9.87;;;15.40;99.90;;;;;;4969586;28;20588;-81
2022/10/21 08:28:34;;;;;;;10.57;9.77;;;15.40;99.90;;;;;;4960175;28;20677;-81
2022/10/21 08:31:05;;;;;;;13.50;11.90;;;15.50;99.90;;;;;;4961165;28;20270;-81
2022/10/21 08:33:34;;;;;;;12.53;11.43;;;15.50;99.90;;;;;;4951160;28;20203;-80
2022/10/21 08:36:05;;;;;;;8.17;6.27;;;15.50;99.90;;;;;;4942421;28;20301;-81
2022/10/21 08:38:32;;;;;;;6.60;5.90;;;15.50;99.90;;;;;;4963593;28;20210;-81
2022/10/21 08:41:00;;;;;;;6.90;6.17;;;15.50;99.90;;;;;;4950509;28;20716;-80
2022/10/21 08:43:31;;;;;;;8.33;7.43;;;15.50;99.90;;;;;;4939140;28;20196;-81
2022/10/21 08:46:02;;;;;;;13.00;11.70;;;15.50;99.90;;;;;;4953170;28;20202;-80
2022/10/21 08:48:36;;;;;;;12.03;10.87;;;15.50;99.90;;;;;;4941197;28;20564;-81
2022/10/21 08:51:06;;;;;;;10.63;9.83;;;15.40;99.90;;;;;;4958713;28;20233;-80
2022/10/21 08:53:37;;;;;;;11.47;10.47;;;15.40;99.90;;;;;;4965931;28;20207;-81
2022/10/21 08:56:07;;;;;;;11.53;10.53;;;15.50;99.90;;;;;;4957357;28;20218;-81
2022/10/21 08:58:34;;;;;;;8.53;7.80;;;15.50;99.90;;;;;;4958338;28;20564;-81
2022/10/21 09:01:05;;;;;;;7.50;5.80;;;15.60;99.90;;;;;;4962273;28;20597;-81
2022/10/21 09:03:41;;;;;;;6.90;6.03;;;15.70;99.90;;;;;;4959424;28;20195;-81
2022/10/21 09:06:23;;;;;;;6.67;5.87;;;15.70;99.90;;;;;;4958561;28;20281;-81
2022/10/21 09:08:59;;;;;;;12.37;11.40;;;15.70;99.90;;;;;;4954219;28;20216;-81
2022/10/21 09:11:40;;;;;;;14.80;13.70;;;15.70;99.90;;;;;;4961102;28;20268;-80
2022/10/21 09:14:40;;;;;;;8.83;6.47;;;15.80;99.90;;;;;;4951864;28;20207;-80
2022/10/21 09:17:25;;;;;;;11.53;5.93;;;15.80;99.90;;;;;;4961873;28;20212;-80
2022/10/21 09:20:00;;;;;;;11.33;10.43;;;15.70;99.90;;;;;;4952842;28;20764;-80
2022/10/21 09:22:44;;;;;;;10.73;9.93;;;15.70;99.90;;;;;;4952569;28;20212;-81
2022/10/21 09:25:21;;;;;;;11.37;10.40;;;15.80;99.90;;;;;;4966264;28;20260;-81
2022/10/21 09:27:48;;;;;;;11.30;10.50;;;15.80;99.90;;;;;;4961122;28;20856;-81
2022/10/21 09:30:17;;;;;;;9.00;8.20;;;15.90;99.90;;;;;;4949662;28;20218;-81
2022/10/21 09:32:48;;;;;;;8.73;7.93;;;16.00;99.90;;;;;;4939370;28;20198;-81
2022/10/21 09:35:23;;;;;;;11.10;10.30;;;16.20;99.90;;;;;;4938095;28;20202;-81
2022/10/21 09:37:56;;;;;;;13.57;12.67;;;16.40;99.90;;;;;;4934615;28;20209;-80
2022/10/21 09:40:27;;;;;;;12.87;12.07;;;16.50;99.90;;;;;;4936656;28;20683;-81
2022/10/21 09:42:55;;;;;;;14.50;13.33;;;16.60;99.90;;;;;;4947769;28;20687;-81
2022/10/21 09:45:28;;;;;;;14.70;13.70;;;16.70;99.90;;;;;;4952124;28;20210;-81
2022/10/21 09:47:58;;;;;;;8.60;8.00;;;16.90;99.90;;;;;;4951567;28;20199;-81
2022/10/21 09:50:29;;;;;;;6.37;5.70;;;17.00;99.90;;;;;;4934956;28;20616;-81
2022/10/21 09:53:02;;;;;;;5.73;5.23;;;17.20;99.90;;;;;;4936950;28;20213;-81
2022/10/21 09:55:31;;;;;;;7.87;7.27;;;17.30;99.90;;;;;;4954520;28;20286;-81
2022/10/21 09:58:00;;;;;;;8.03;5.63;;;17.40;99.90;;;;;;4951142;28;20202;-81
2022/10/21 10:00:46;;;;;;;9.07;7.50;;;17.40;99.90;;;;;;4956421;28;20220;-83
2022/10/21 10:03:28;;;;;;;6.43;5.23;;;17.40;99.90;;;;;;4951257;28;20202;-79
2022/10/21 10:05:57;;;;;;;5.33;4.83;;;17.50;99.90;;;;;;4961538;28;20237;-81
2022/10/21 10:08:31;;;;;;;6.80;4.97;;;17.60;99.90;;;;;;4960271;28;20206;-81
2022/10/21 10:11:03;;;;;;;5.80;5.20;;;17.70;99.90;;;;;;4960046;28;20230;-81
2022/10/21 10:13:30;;;;;;;13.47;12.50;;;17.70;99.90;;;;;;4968229;28;20194;-81
2022/10/21 10:16:29;;;;;;;12.03;11.23;;;17.80;99.90;;;;;;4968220;28;20609;-81
2022/10/21 10:19:14;;;;;;;13.50;12.70;;;17.80;99.90;;;;;;4955393;28;20213;-81
2022/10/21 10:21:42;;;;;;;4.53;4.17;;;17.70;99.90;;;;;;4950638;28;20678;-81
2022/10/21 10:24:17;;;;;;;5.03;4.53;;;17.80;99.90;;;;;;4954819;28;20203;-81
2022/10/21 10:26:44;;;;;;;5.27;4.47;;;17.90;99.90;;;;;;4952875;28;20235;-81
2022/10/21 10:29:25;;;;;;;4.90;4.20;;;18.00;99.90;;;;;;4964172;28;20206;-81
2022/10/21 10:31:56;;;;;;;4.77;4.37;;;18.10;99.90;;;;;;4962365;28;20208;-82
2022/10/21 10:34:27;;;;;;;8.40;7.70;;;18.20;99.90;;;;;;4954377;28;20211;-83
2022/10/21 10:37:04;;;;;;;12.33;11.53;;;18.30;99.90;;;;;;4960688;28;20202;-82
2022/10/21 10:39:36;;;;;;;12.10;11.20;;;18.30;99.90;;;;;;4956731;28;20204;-82
2022/10/21 10:42:03;;;;;;;4.20;3.80;;;18.30;99.90;;;;;;4961052;28;20287;-82
2022/10/21 10:44:35;;;;;;;11.43;10.73;;;18.30;99.90;;;;;;4961457;28;20196;-82
2022/10/21 10:47:05;;;;;;;12.40;11.50;;;18.20;99.90;;;;;;4960897;28;20242;-81
2022/10/21 10:49:38;;;;;;;12.73;11.83;;;18.20;99.90;;;;;;4952921;28;20212;-83
2022/10/21 10:52:20;;;;;;;10.57;9.93;;;18.10;99.90;;;;;;4954877;28;20265;-83
2022/10/21 10:54:48;;;;;;;11.17;10.57;;;17.90;99.90;;;;;;4954790;28;20237;-83
2022/10/21 10:57:18;;;;;;;3.53;3.33;;;17.80;99.90;;;;;;4950672;28;20207;-81
2022/10/21 10:59:50;;;;;;;3.57;3.27;;;17.80;99.90;;;;;;4947912;28;20257;-80
2022/10/21 11:02:31;;;;;;;12.00;11.30;;;17.70;99.90;;;;;;4951189;28;20204;-81
2022/10/21 11:05:17;;;;;;;13.00;12.20;;;17.70;99.90;;;;;;4948702;28;20203;-81
2022/10/21 11:07:49;;;;;;;3.67;3.37;;;17.60;99.90;;;;;;4942811;28;20210;-81
2022/10/21 11:10:37;;;;;;;3.50;3.20;;;17.70;99.90;;;;;;4961352;28;20235;-81
2022/10/21 11:13:09;;;;;;;3.50;3.30;;;17.70;99.90;;;;;;4963991;28;20243;-81
2022/10/21 11:15:56;;;;;;;3.40;3.20;;;17.80;99.90;;;;;;4954909;28;20200;-81
2022/10/21 11:18:33;;;;;;;4.10;3.70;;;18.00;99.90;;;;;;4944556;28;20190;-81
2022/10/21 11:21:14;;;;;;;4.20;3.80;;;18.10;99.90;;;;;;4957372;28;20225;-81
2022/10/21 11:24:02;;;;;;;3.70;3.40;;;18.20;99.90;;;;;;4967909;28;20208;-81
2022/10/21 11:26:40;;;;;;;3.60;3.40;;;18.30;99.90;;;;;;4954194;28;20571;-81
2022/10/21 11:29:20;;;;;;;3.63;3.30;;;18.30;99.90;;;;;;4954760;28;20619;-80
2022/10/21 11:31:59;;;;;;;9.17;8.67;;;18.30;99.90;;;;;;4959567;28;20216;-81
2022/10/21 11:34:36;;;;;;;11.50;10.70;;;18.20;99.90;;;;;;4964397;28;20210;-81
2022/10/21 11:37:12;;;;;;;11.40;10.50;;;18.10;99.90;;;;;;4965233;28;20216;-81
2022/10/21 11:39:54;;;;;;;11.40;10.77;;;18.20;99.90;;;;;;4968498;28;20222;-81
2022/10/21 11:42:25;;;;;;;3.47;3.17;;;18.30;99.90;;;;;;4969104;28;20204;-80
2022/10/21 11:45:20;;;;;;;3.47;3.17;;;18.40;99.90;;;;;;4966045;28;20278;-80
2022/10/21 11:47:56;;;;;;;3.50;3.27;;;18.40;99.90;;;;;;4974190;28;20204;-81
2022/10/21 11:50:34;;;;;;;8.93;8.30;;;18.40;99.90;;;;;;4956617;28;20217;-82
2022/10/21 11:53:15;;;;;;;4.40;4.10;;;18.40;99.90;;;;;;4959717;28;20207;-82
2022/10/21 11:55:49;;;;;;;5.00;4.43;;;18.40;99.90;;;;;;4956625;28;20203;-82
2022/10/21 11:58:26;;;;;;;3.80;3.50;;;18.40;99.90;;;;;;4961954;28;20692;-81
2022/10/21 12:01:02;;;;;;;3.60;3.30;;;18.40;99.90;;;;;;4963759;28;20229;-81
2022/10/21 12:03:49;;;;;;;9.83;9.13;;;18.50;99.90;;;;;;4951440;28;20567;-80
2022/10/21 12:06:27;;;;;;;6.10;5.57;;;18.40;99.90;;;;;;4968395;28;20209;-81
2022/10/21 12:08:59;;;;;;;6.57;5.93;;;18.50;99.90;;;;;;4973487;28;20205;-82
2022/10/21 12:11:33;;;;;;;3.53;3.03;;;18.50;99.90;;;;;;4962806;28;20229;-82
2022/10/21 12:14:07;;;;;;;5.40;3.07;;;18.50;99.90;;;;;;4966320;28;20208;-81
2022/10/21 12:16:35;;;;;;;3.30;3.00;;;18.50;99.90;;;;;;4956800;28;20812;-81
2022/10/21 12:19:09;;;;;;;3.53;3.23;;;18.60;99.90;;;;;;4949910;28;20384;-82
2022/10/21 12:21:39;;;;;;;3.23;2.93;;;18.70;99.90;;;;;;4960348;28;20225;-83
2022/10/21 12:24:14;;;;;;;8.80;8.20;;;18.70;99.90;;;;;;4959370;28;20209;-83
2022/10/21 12:26:48;;;;;;;10.50;9.80;;;18.70;99.90;;;;;;4962534;28;20207;-82
2022/10/21 12:29:20;;;;;;;10.07;9.43;;;18.60;99.90;;;;;;4965891;28;20210;-82
2022/10/21 12:31:55;;;;;;;11.00;10.37;;;18.50;99.90;;;;;;4962679;28;20234;-82
2022/10/21 12:34:23;;;;;;;11.90;11.10;;;18.30;99.90;;;;;;4965916;28;20212;-83
2022/10/21 12:36:53;;;;;;;11.17;10.37;;;18.20;99.90;;;;;;4947992;28;20204;-83
2022/10/21 12:39:48;;;;;;;11.40;10.63;;;18.20;99.90;;;;;;4957087;28;20300;-81
2022/10/21 12:42:18;;;;;;;3.47;3.00;;;18.10;99.90;;;;;;4964630;28;20596;-83
2022/10/21 12:44:47;;;;;;;3.03;2.77;;;18.00;99.90;;;;;;4947599;28;20254;-83
2022/10/21 12:47:30;;;;;;;2.87;2.67;;;18.00;99.90;;;;;;4950591;28;20212;-83
2022/10/21 12:50:17;;;;;;;3.20;2.90;;;18.10;99.90;;;;;;4942031;28;20231;-82
2022/10/21 12:52:45;;;;;;;3.07;2.87;;;18.30;99.90;;;;;;4950241;28;20585;-82